sensor_id;sensor_type;location;lat;lon;timestamp;P1;durP1;ratioP1;P2;durP2;ratioP2
46266;SDS011;31998;48.798;15.066;2022-10-16T00:00:41;25.73;;;13.80;;
46266;SDS011;31998;48.798;15.066;2022-10-16T00:03:08;27.83;;;14.60;;
46266;SDS011;31998;48.798;15.066;2022-10-16T00:05:38;22.23;;;12.20;;
46266;SDS011;31998;48.798;15.066;2022-10-16T00:08:05;19.43;;;9.47;;
46266;SDS011;31998;48.798;15.066;2022-10-16T00:10:31;17.00;;;7.73;;
46266;SDS011;31998;48.798;15.066;2022-10-16T00:12:56;8.60;;;5.77;;
46266;SDS011;31998;48.798;15.066;2022-10-16T00:15:22;12.70;;;4.60;;
46266;SDS011;31998;48.798;15.066;2022-10-16T00:17:47;3.77;;;3.43;;
46266;SDS011;31998;48.798;15.066;2022-10-16T00:20:12;9.20;;;3.80;;
46266;SDS011;31998;48.798;15.066;2022-10-16T00:22:38;17.10;;;2.77;;
46266;SDS011;31998;48.798;15.066;2022-10-16T00:25:03;10.93;;;3.23;;
46266;SDS011;31998;48.798;15.066;2022-10-16T00:27:29;13.20;;;3.63;;
46266;SDS011;31998;48.798;15.066;2022-10-16T00:29:54;6.20;;;3.83;;
46266;SDS011;31998;48.798;15.066;2022-10-16T00:32:20;13.23;;;4.63;;
46266;SDS011;31998;48.798;15.066;2022-10-16T00:34:46;9.40;;;6.10;;
46266;SDS011;31998;48.798;15.066;2022-10-16T00:37:11;22.03;;;7.03;;
46266;SDS011;31998;48.798;15.066;2022-10-16T00:39:37;13.30;;;6.80;;
46266;SDS011;31998;48.798;15.066;2022-10-16T00:42:03;8.30;;;5.30;;
46266;SDS011;31998;48.798;15.066;2022-10-16T00:47:34;15.40;;;8.07;;
46266;SDS011;31998;48.798;15.066;2022-10-16T00:50:08;25.23;;;12.83;;
46266;SDS011;31998;48.798;15.066;2022-10-16T00:52:39;17.53;;;8.33;;
46266;SDS011;31998;48.798;15.066;2022-10-16T00:55:09;11.73;;;7.20;;
46266;SDS011;31998;48.798;15.066;2022-10-16T00:57:35;16.07;;;8.10;;
46266;SDS011;31998;48.798;15.066;2022-10-16T01:00:02;17.10;;;7.93;;
46266;SDS011;31998;48.798;15.066;2022-10-16T01:02:30;13.20;;;7.90;;
46266;SDS011;31998;48.798;15.066;2022-10-16T01:04:55;21.33;;;8.67;;
46266;SDS011;31998;48.798;15.066;2022-10-16T01:07:26;14.33;;;6.80;;
46266;SDS011;31998;48.798;15.066;2022-10-16T01:15:40;19.30;;;10.00;;
46266;SDS011;31998;48.798;15.066;2022-10-16T01:18:23;19.73;;;12.20;;
46266;SDS011;31998;48.798;15.066;2022-10-16T01:20:58;16.33;;;9.70;;
46266;SDS011;31998;48.798;15.066;2022-10-16T01:23:31;10.70;;;8.23;;
46266;SDS011;31998;48.798;15.066;2022-10-16T01:28:44;15.97;;;9.43;;
46266;SDS011;31998;48.798;15.066;2022-10-16T01:31:19;9.20;;;5.90;;
46266;SDS011;31998;48.798;15.066;2022-10-16T01:33:51;6.90;;;5.87;;
46266;SDS011;31998;48.798;15.066;2022-10-16T01:36:28;9.40;;;5.73;;
46266;SDS011;31998;48.798;15.066;2022-10-16T01:39:15;15.17;;;8.10;;
46266;SDS011;31998;48.798;15.066;2022-10-16T01:41:47;17.83;;;8.57;;
46266;SDS011;31998;48.798;15.066;2022-10-16T01:44:20;19.87;;;7.80;;
46266;SDS011;31998;48.798;15.066;2022-10-16T01:46:50;11.87;;;8.67;;
46266;SDS011;31998;48.798;15.066;2022-10-16T01:49:17;20.43;;;9.07;;
46266;SDS011;31998;48.798;15.066;2022-10-16T01:51:45;20.00;;;9.87;;
46266;SDS011;31998;48.798;15.066;2022-10-16T01:54:13;11.17;;;7.97;;
46266;SDS011;31998;48.798;15.066;2022-10-16T01:56:43;12.93;;;7.77;;
46266;SDS011;31998;48.798;15.066;2022-10-16T01:59:12;12.47;;;7.50;;
46266;SDS011;31998;48.798;15.066;2022-10-16T02:01:42;7.63;;;6.83;;
46266;SDS011;31998;48.798;15.066;2022-10-16T02:04:55;16.83;;;6.37;;
46266;SDS011;31998;48.798;15.066;2022-10-16T02:07:07;6.87;;;4.83;;
46266;SDS011;31998;48.798;15.066;2022-10-16T02:09:33;7.10;;;4.00;;
46266;SDS011;31998;48.798;15.066;2022-10-16T02:12:01;4.80;;;4.40;;
46266;SDS011;31998;48.798;15.066;2022-10-16T02:14:31;14.63;;;4.40;;
46266;SDS011;31998;48.798;15.066;2022-10-16T02:16:57;4.57;;;4.27;;
46266;SDS011;31998;48.798;15.066;2022-10-16T02:19:23;8.80;;;6.73;;
46266;SDS011;31998;48.798;15.066;2022-10-16T02:21:50;12.97;;;5.90;;
46266;SDS011;31998;48.798;15.066;2022-10-16T02:24:24;5.80;;;5.30;;
46266;SDS011;31998;48.798;15.066;2022-10-16T02:30:09;54.27;;;6.47;;
46266;SDS011;31998;48.798;15.066;2022-10-16T02:32:41;122.00;;;7.07;;
46266;SDS011;31998;48.798;15.066;2022-10-16T02:35:09;10.30;;;2.83;;
46266;SDS011;31998;48.798;15.066;2022-10-16T02:37:35;5.80;;;3.13;;
46266;SDS011;31998;48.798;15.066;2022-10-16T02:40:03;3.37;;;3.13;;
46266;SDS011;31998;48.798;15.066;2022-10-16T02:42:37;8.60;;;2.43;;
46266;SDS011;31998;48.798;15.066;2022-10-16T02:45:04;7.03;;;3.03;;
46266;SDS011;31998;48.798;15.066;2022-10-16T02:47:30;1.63;;;1.50;;
46266;SDS011;31998;48.798;15.066;2022-10-16T02:49:56;6.30;;;1.40;;
46266;SDS011;31998;48.798;15.066;2022-10-16T02:52:21;1.87;;;1.43;;
46266;SDS011;31998;48.798;15.066;2022-10-16T02:54:46;3.43;;;1.10;;
46266;SDS011;31998;48.798;15.066;2022-10-16T02:57:12;11.27;;;1.40;;
46266;SDS011;31998;48.798;15.066;2022-10-16T02:59:37;2.10;;;1.13;;
46266;SDS011;31998;48.798;15.066;2022-10-16T03:02:02;0.83;;;0.83;;
46266;SDS011;31998;48.798;15.066;2022-10-16T03:04:28;9.60;;;1.50;;
46266;SDS011;31998;48.798;15.066;2022-10-16T03:06:53;10.83;;;0.97;;
46266;SDS011;31998;48.798;15.066;2022-10-16T03:09:19;11.03;;;0.90;;
46266;SDS011;31998;48.798;15.066;2022-10-16T03:11:44;8.03;;;1.20;;
46266;SDS011;31998;48.798;15.066;2022-10-16T03:14:09;1.23;;;0.67;;
46266;SDS011;31998;48.798;15.066;2022-10-16T03:16:35;0.67;;;0.67;;
46266;SDS011;31998;48.798;15.066;2022-10-16T03:19:00;3.80;;;0.93;;
46266;SDS011;31998;48.798;15.066;2022-10-16T03:21:26;2.50;;;0.60;;
46266;SDS011;31998;48.798;15.066;2022-10-16T03:23:51;6.90;;;0.80;;
46266;SDS011;31998;48.798;15.066;2022-10-16T03:26:17;3.10;;;0.87;;
46266;SDS011;31998;48.798;15.066;2022-10-16T03:28:42;0.80;;;0.80;;
46266;SDS011;31998;48.798;15.066;2022-10-16T03:31:07;1.07;;;0.90;;
46266;SDS011;31998;48.798;15.066;2022-10-16T03:33:33;1.70;;;0.90;;
46266;SDS011;31998;48.798;15.066;2022-10-16T03:35:58;2.50;;;1.10;;
46266;SDS011;31998;48.798;15.066;2022-10-16T03:38:24;0.80;;;0.80;;
46266;SDS011;31998;48.798;15.066;2022-10-16T03:40:49;0.80;;;0.80;;
46266;SDS011;31998;48.798;15.066;2022-10-16T03:43:14;4.63;;;1.30;;
46266;SDS011;31998;48.798;15.066;2022-10-16T03:45:40;0.90;;;0.90;;
46266;SDS011;31998;48.798;15.066;2022-10-16T03:48:05;3.57;;;1.00;;
46266;SDS011;31998;48.798;15.066;2022-10-16T03:50:31;4.37;;;0.90;;
46266;SDS011;31998;48.798;15.066;2022-10-16T03:52:56;1.03;;;1.00;;
46266;SDS011;31998;48.798;15.066;2022-10-16T03:55:22;6.20;;;1.93;;
46266;SDS011;31998;48.798;15.066;2022-10-16T03:57:47;1.43;;;1.17;;
46266;SDS011;31998;48.798;15.066;2022-10-16T04:00:12;5.23;;;1.00;;
46266;SDS011;31998;48.798;15.066;2022-10-16T04:02:38;1.00;;;1.00;;
46266;SDS011;31998;48.798;15.066;2022-10-16T04:05:04;5.67;;;1.37;;
46266;SDS011;31998;48.798;15.066;2022-10-16T04:07:30;0.90;;;0.90;;
46266;SDS011;31998;48.798;15.066;2022-10-16T04:09:55;2.00;;;1.20;;
46266;SDS011;31998;48.798;15.066;2022-10-16T04:12:22;1.07;;;1.07;;
46266;SDS011;31998;48.798;15.066;2022-10-16T04:14:47;4.57;;;1.13;;
46266;SDS011;31998;48.798;15.066;2022-10-16T04:17:13;1.30;;;1.00;;
46266;SDS011;31998;48.798;15.066;2022-10-16T04:19:38;1.73;;;1.60;;
46266;SDS011;31998;48.798;15.066;2022-10-16T04:22:03;1.77;;;1.77;;
46266;SDS011;31998;48.798;15.066;2022-10-16T04:24:29;1.47;;;1.47;;
46266;SDS011;31998;48.798;15.066;2022-10-16T04:26:54;2.93;;;1.30;;
46266;SDS011;31998;48.798;15.066;2022-10-16T04:29:19;3.03;;;1.20;;
46266;SDS011;31998;48.798;15.066;2022-10-16T04:31:45;16.03;;;1.97;;
46266;SDS011;31998;48.798;15.066;2022-10-16T04:34:11;1.30;;;1.30;;
46266;SDS011;31998;48.798;15.066;2022-10-16T04:36:37;1.67;;;1.57;;
46266;SDS011;31998;48.798;15.066;2022-10-16T04:39:02;7.50;;;2.00;;
46266;SDS011;31998;48.798;15.066;2022-10-16T04:41:27;2.93;;;1.30;;
46266;SDS011;31998;48.798;15.066;2022-10-16T04:43:53;1.70;;;1.60;;
46266;SDS011;31998;48.798;15.066;2022-10-16T04:46:18;5.23;;;1.13;;
46266;SDS011;31998;48.798;15.066;2022-10-16T04:48:44;4.67;;;1.30;;
46266;SDS011;31998;48.798;15.066;2022-10-16T04:51:09;1.83;;;1.83;;
46266;SDS011;31998;48.798;15.066;2022-10-16T04:53:34;2.13;;;1.53;;
46266;SDS011;31998;48.798;15.066;2022-10-16T04:56:00;2.47;;;1.90;;
46266;SDS011;31998;48.798;15.066;2022-10-16T04:58:25;2.43;;;1.50;;
46266;SDS011;31998;48.798;15.066;2022-10-16T05:00:51;3.17;;;1.37;;
46266;SDS011;31998;48.798;15.066;2022-10-16T05:03:16;3.93;;;1.10;;
46266;SDS011;31998;48.798;15.066;2022-10-16T05:05:42;6.80;;;1.70;;
46266;SDS011;31998;48.798;15.066;2022-10-16T05:08:09;1.47;;;1.37;;
46266;SDS011;31998;48.798;15.066;2022-10-16T05:10:35;1.17;;;1.07;;
46266;SDS011;31998;48.798;15.066;2022-10-16T05:13:00;5.47;;;1.30;;
46266;SDS011;31998;48.798;15.066;2022-10-16T05:15:25;5.90;;;1.40;;
46266;SDS011;31998;48.798;15.066;2022-10-16T05:17:54;1.10;;;1.10;;
46266;SDS011;31998;48.798;15.066;2022-10-16T05:20:20;3.27;;;1.50;;
46266;SDS011;31998;48.798;15.066;2022-10-16T05:22:47;3.27;;;1.43;;
46266;SDS011;31998;48.798;15.066;2022-10-16T05:25:12;6.70;;;1.63;;
46266;SDS011;31998;48.798;15.066;2022-10-16T05:27:38;1.63;;;1.27;;
46266;SDS011;31998;48.798;15.066;2022-10-16T05:30:03;5.63;;;2.00;;
46266;SDS011;31998;48.798;15.066;2022-10-16T05:32:29;3.13;;;1.10;;
46266;SDS011;31998;48.798;15.066;2022-10-16T05:34:54;12.53;;;1.83;;
46266;SDS011;31998;48.798;15.066;2022-10-16T05:37:20;1.30;;;1.30;;
46266;SDS011;31998;48.798;15.066;2022-10-16T05:39:45;2.30;;;2.20;;
46266;SDS011;31998;48.798;15.066;2022-10-16T05:42:10;1.67;;;1.57;;
46266;SDS011;31998;48.798;15.066;2022-10-16T05:44:36;9.93;;;1.37;;
46266;SDS011;31998;48.798;15.066;2022-10-16T05:47:01;1.30;;;1.30;;
46266;SDS011;31998;48.798;15.066;2022-10-16T05:49:27;1.70;;;1.70;;
46266;SDS011;31998;48.798;15.066;2022-10-16T05:51:52;2.77;;;1.30;;
46266;SDS011;31998;48.798;15.066;2022-10-16T05:54:17;4.20;;;1.43;;
46266;SDS011;31998;48.798;15.066;2022-10-16T05:56:43;1.30;;;1.30;;
46266;SDS011;31998;48.798;15.066;2022-10-16T05:59:08;1.87;;;1.83;;
46266;SDS011;31998;48.798;15.066;2022-10-16T06:01:34;6.40;;;1.70;;
46266;SDS011;31998;48.798;15.066;2022-10-16T06:04:00;8.37;;;1.50;;
46266;SDS011;31998;48.798;15.066;2022-10-16T06:06:27;4.93;;;1.87;;
46266;SDS011;31998;48.798;15.066;2022-10-16T06:08:54;1.57;;;1.47;;
46266;SDS011;31998;48.798;15.066;2022-10-16T06:11:22;1.30;;;1.30;;
46266;SDS011;31998;48.798;15.066;2022-10-16T06:13:53;4.93;;;1.83;;
46266;SDS011;31998;48.798;15.066;2022-10-16T06:16:21;5.90;;;1.53;;
46266;SDS011;31998;48.798;15.066;2022-10-16T06:18:50;1.63;;;1.63;;
46266;SDS011;31998;48.798;15.066;2022-10-16T06:21:17;8.50;;;1.60;;
46266;SDS011;31998;48.798;15.066;2022-10-16T06:23:44;3.00;;;1.80;;
46266;SDS011;31998;48.798;15.066;2022-10-16T06:26:13;2.30;;;2.20;;
46266;SDS011;31998;48.798;15.066;2022-10-16T06:28:40;5.70;;;2.03;;
46266;SDS011;31998;48.798;15.066;2022-10-16T06:31:07;3.30;;;1.67;;
46266;SDS011;31998;48.798;15.066;2022-10-16T06:33:34;5.03;;;2.53;;
46266;SDS011;31998;48.798;15.066;2022-10-16T06:36:01;3.63;;;3.07;;
46266;SDS011;31998;48.798;15.066;2022-10-16T06:38:28;4.13;;;3.83;;
46266;SDS011;31998;48.798;15.066;2022-10-16T06:40:53;3.60;;;3.50;;
46266;SDS011;31998;48.798;15.066;2022-10-16T06:43:19;3.13;;;3.03;;
46266;SDS011;31998;48.798;15.066;2022-10-16T06:45:50;3.83;;;3.33;;
46266;SDS011;31998;48.798;15.066;2022-10-16T06:48:22;3.30;;;3.20;;
46266;SDS011;31998;48.798;15.066;2022-10-16T06:50:58;3.20;;;3.07;;
46266;SDS011;31998;48.798;15.066;2022-10-16T06:53:30;3.37;;;3.10;;
46266;SDS011;31998;48.798;15.066;2022-10-16T06:55:57;3.80;;;3.50;;
46266;SDS011;31998;48.798;15.066;2022-10-16T06:58:22;4.20;;;4.10;;
46266;SDS011;31998;48.798;15.066;2022-10-16T07:00:48;2.90;;;2.80;;
46266;SDS011;31998;48.798;15.066;2022-10-16T07:03:19;3.97;;;3.00;;
46266;SDS011;31998;48.798;15.066;2022-10-16T07:05:45;4.80;;;2.77;;
46266;SDS011;31998;48.798;15.066;2022-10-16T07:08:11;2.70;;;2.60;;
46266;SDS011;31998;48.798;15.066;2022-10-16T07:10:36;2.50;;;2.03;;
46266;SDS011;31998;48.798;15.066;2022-10-16T07:13:02;2.53;;;2.00;;
46266;SDS011;31998;48.798;15.066;2022-10-16T07:15:27;2.07;;;1.50;;
46266;SDS011;31998;48.798;15.066;2022-10-16T07:17:53;3.17;;;2.80;;
46266;SDS011;31998;48.798;15.066;2022-10-16T07:20:18;2.30;;;2.10;;
46266;SDS011;31998;48.798;15.066;2022-10-16T07:22:44;2.00;;;1.90;;
46266;SDS011;31998;48.798;15.066;2022-10-16T07:25:09;2.53;;;1.70;;
46266;SDS011;31998;48.798;15.066;2022-10-16T07:27:36;1.80;;;1.70;;
46266;SDS011;31998;48.798;15.066;2022-10-16T07:30:01;1.30;;;1.30;;
46266;SDS011;31998;48.798;15.066;2022-10-16T07:32:27;3.63;;;1.23;;
46266;SDS011;31998;48.798;15.066;2022-10-16T07:34:52;2.33;;;1.17;;
46266;SDS011;31998;48.798;15.066;2022-10-16T07:37:18;1.07;;;1.07;;
46266;SDS011;31998;48.798;15.066;2022-10-16T07:39:44;1.27;;;1.10;;
46266;SDS011;31998;48.798;15.066;2022-10-16T07:42:09;2.50;;;1.13;;
46266;SDS011;31998;48.798;15.066;2022-10-16T07:44:35;1.17;;;1.17;;
46266;SDS011;31998;48.798;15.066;2022-10-16T07:47:00;2.40;;;1.10;;
46266;SDS011;31998;48.798;15.066;2022-10-16T07:49:25;1.00;;;1.00;;
46266;SDS011;31998;48.798;15.066;2022-10-16T07:51:51;1.60;;;1.13;;
46266;SDS011;31998;48.798;15.066;2022-10-16T07:54:16;1.27;;;1.27;;
46266;SDS011;31998;48.798;15.066;2022-10-16T07:56:42;1.60;;;1.60;;
46266;SDS011;31998;48.798;15.066;2022-10-16T07:59:07;1.23;;;1.10;;
46266;SDS011;31998;48.798;15.066;2022-10-16T08:01:33;1.20;;;1.20;;
46266;SDS011;31998;48.798;15.066;2022-10-16T08:03:58;12.33;;;2.47;;
46266;SDS011;31998;48.798;15.066;2022-10-16T08:06:23;6.87;;;1.00;;
46266;SDS011;31998;48.798;15.066;2022-10-16T08:08:49;2.10;;;0.90;;
46266;SDS011;31998;48.798;15.066;2022-10-16T08:11:14;1.33;;;0.70;;
46266;SDS011;31998;48.798;15.066;2022-10-16T08:13:40;2.87;;;0.70;;
46266;SDS011;31998;48.798;15.066;2022-10-16T08:16:06;1.90;;;0.73;;
46266;SDS011;31998;48.798;15.066;2022-10-16T08:18:37;0.80;;;0.80;;
46266;SDS011;31998;48.798;15.066;2022-10-16T08:21:03;11.23;;;1.00;;
46266;SDS011;31998;48.798;15.066;2022-10-16T08:23:30;1.00;;;1.00;;
46266;SDS011;31998;48.798;15.066;2022-10-16T08:25:56;0.87;;;0.87;;
46266;SDS011;31998;48.798;15.066;2022-10-16T08:28:27;0.70;;;0.70;;
46266;SDS011;31998;48.798;15.066;2022-10-16T08:30:52;2.30;;;0.60;;
46266;SDS011;31998;48.798;15.066;2022-10-16T08:33:18;1.27;;;0.80;;
46266;SDS011;31998;48.798;15.066;2022-10-16T08:35:50;2.00;;;0.90;;
46266;SDS011;31998;48.798;15.066;2022-10-16T08:38:16;2.07;;;0.80;;
46266;SDS011;31998;48.798;15.066;2022-10-16T08:40:41;0.90;;;0.90;;
46266;SDS011;31998;48.798;15.066;2022-10-16T08:43:11;2.10;;;1.00;;
46266;SDS011;31998;48.798;15.066;2022-10-16T08:51:31;1.80;;;0.67;;
46266;SDS011;31998;48.798;15.066;2022-10-16T08:54:04;2.70;;;0.70;;
46266;SDS011;31998;48.798;15.066;2022-10-16T08:56:31;0.77;;;0.77;;
46266;SDS011;31998;48.798;15.066;2022-10-16T08:58:58;6.00;;;0.80;;
46266;SDS011;31998;48.798;15.066;2022-10-16T09:01:25;1.43;;;0.60;;
46266;SDS011;31998;48.798;15.066;2022-10-16T09:06:45;0.83;;;0.70;;
46266;SDS011;31998;48.798;15.066;2022-10-16T09:18:01;0.60;;;0.60;;
46266;SDS011;31998;48.798;15.066;2022-10-16T09:23:30;1.00;;;1.00;;
46266;SDS011;31998;48.798;15.066;2022-10-16T09:26:00;0.80;;;0.80;;
46266;SDS011;31998;48.798;15.066;2022-10-16T09:28:27;0.70;;;0.70;;
46266;SDS011;31998;48.798;15.066;2022-10-16T09:30:52;0.77;;;0.77;;
46266;SDS011;31998;48.798;15.066;2022-10-16T09:33:19;2.13;;;1.10;;
46266;SDS011;31998;48.798;15.066;2022-10-16T09:35:48;0.90;;;0.90;;
46266;SDS011;31998;48.798;15.066;2022-10-16T09:40:50;2.93;;;1.17;;
46266;SDS011;31998;48.798;15.066;2022-10-16T09:43:23;2.00;;;1.03;;
46266;SDS011;31998;48.798;15.066;2022-10-16T09:46:02;0.70;;;0.70;;
46266;SDS011;31998;48.798;15.066;2022-10-16T09:48:39;0.70;;;0.70;;
46266;SDS011;31998;48.798;15.066;2022-10-16T09:51:19;0.60;;;0.60;;
46266;SDS011;31998;48.798;15.066;2022-10-16T09:53:48;2.33;;;0.73;;
46266;SDS011;31998;48.798;15.066;2022-10-16T09:56:24;1.10;;;1.10;;
46266;SDS011;31998;48.798;15.066;2022-10-16T09:58:59;0.80;;;0.80;;
46266;SDS011;31998;48.798;15.066;2022-10-16T10:01:29;4.13;;;0.93;;
46266;SDS011;31998;48.798;15.066;2022-10-16T10:04:01;1.13;;;0.90;;
46266;SDS011;31998;48.798;15.066;2022-10-16T10:06:29;0.50;;;0.50;;
46266;SDS011;31998;48.798;15.066;2022-10-16T10:08:59;0.63;;;0.63;;
46266;SDS011;31998;48.798;15.066;2022-10-16T10:11:44;0.60;;;0.60;;
46266;SDS011;31998;48.798;15.066;2022-10-16T10:14:22;2.00;;;0.77;;
46266;SDS011;31998;48.798;15.066;2022-10-16T10:16:50;3.80;;;0.70;;
46266;SDS011;31998;48.798;15.066;2022-10-16T10:22:25;0.70;;;0.70;;
46266;SDS011;31998;48.798;15.066;2022-10-16T10:24:54;1.00;;;1.00;;
46266;SDS011;31998;48.798;15.066;2022-10-16T10:27:21;0.80;;;0.80;;
46266;SDS011;31998;48.798;15.066;2022-10-16T10:35:24;1.80;;;0.73;;
46266;SDS011;31998;48.798;15.066;2022-10-16T10:46:02;0.63;;;0.60;;
46266;SDS011;31998;48.798;15.066;2022-10-16T10:51:35;0.97;;;0.70;;
46266;SDS011;31998;48.798;15.066;2022-10-16T10:54:12;1.83;;;0.87;;
46266;SDS011;31998;48.798;15.066;2022-10-16T10:57:25;3.90;;;0.70;;
46266;SDS011;31998;48.798;15.066;2022-10-16T10:59:52;2.00;;;0.70;;
46266;SDS011;31998;48.798;15.066;2022-10-16T11:05:45;0.77;;;0.77;;
46266;SDS011;31998;48.798;15.066;2022-10-16T11:08:22;1.80;;;1.10;;
46266;SDS011;31998;48.798;15.066;2022-10-16T11:11:01;0.77;;;0.77;;
46266;SDS011;31998;48.798;15.066;2022-10-16T11:13:37;0.77;;;0.60;;
46266;SDS011;31998;48.798;15.066;2022-10-16T11:16:16;1.80;;;0.80;;
46266;SDS011;31998;48.798;15.066;2022-10-16T11:22:11;1.00;;;1.00;;
46266;SDS011;31998;48.798;15.066;2022-10-16T11:27:47;1.10;;;1.10;;
46266;SDS011;31998;48.798;15.066;2022-10-16T11:40:48;0.90;;;0.80;;
46266;SDS011;31998;48.798;15.066;2022-10-16T11:43:22;0.70;;;0.70;;
46266;SDS011;31998;48.798;15.066;2022-10-16T11:45:54;2.00;;;0.87;;
46266;SDS011;31998;48.798;15.066;2022-10-16T11:48:24;0.90;;;0.90;;
46266;SDS011;31998;48.798;15.066;2022-10-16T11:51:16;0.70;;;0.70;;
46266;SDS011;31998;48.798;15.066;2022-10-16T11:53:56;1.00;;;0.80;;
46266;SDS011;31998;48.798;15.066;2022-10-16T11:56:46;0.77;;;0.77;;
46266;SDS011;31998;48.798;15.066;2022-10-16T12:05:14;3.23;;;1.10;;
46266;SDS011;31998;48.798;15.066;2022-10-16T12:07:48;3.70;;;0.60;;
46266;SDS011;31998;48.798;15.066;2022-10-16T12:10:43;3.37;;;0.70;;
46266;SDS011;31998;48.798;15.066;2022-10-16T12:16:05;0.70;;;0.70;;
46266;SDS011;31998;48.798;15.066;2022-10-16T12:18:44;0.60;;;0.60;;
46266;SDS011;31998;48.798;15.066;2022-10-16T12:21:11;0.90;;;0.90;;
46266;SDS011;31998;48.798;15.066;2022-10-16T12:28:52;4.80;;;1.00;;
46266;SDS011;31998;48.798;15.066;2022-10-16T12:31:18;0.50;;;0.50;;
46266;SDS011;31998;48.798;15.066;2022-10-16T12:34:21;0.83;;;0.83;;
46266;SDS011;31998;48.798;15.066;2022-10-16T12:37:09;0.80;;;0.80;;
46266;SDS011;31998;48.798;15.066;2022-10-16T12:39:38;0.70;;;0.70;;
46266;SDS011;31998;48.798;15.066;2022-10-16T12:42:05;1.03;;;0.93;;
46266;SDS011;31998;48.798;15.066;2022-10-16T12:44:45;1.10;;;1.10;;
46266;SDS011;31998;48.798;15.066;2022-10-16T12:47:19;1.50;;;0.70;;
46266;SDS011;31998;48.798;15.066;2022-10-16T12:50:24;3.17;;;0.90;;
46266;SDS011;31998;48.798;15.066;2022-10-16T12:52:56;0.80;;;0.70;;
46266;SDS011;31998;48.798;15.066;2022-10-16T12:55:22;1.67;;;1.00;;
46266;SDS011;31998;48.798;15.066;2022-10-16T13:00:31;2.40;;;1.07;;
46266;SDS011;31998;48.798;15.066;2022-10-16T13:16:55;0.77;;;0.77;;
46266;SDS011;31998;48.798;15.066;2022-10-16T13:19:28;0.80;;;0.80;;
46266;SDS011;31998;48.798;15.066;2022-10-16T13:30:18;0.80;;;0.80;;
46266;SDS011;31998;48.798;15.066;2022-10-16T13:32:59;2.07;;;1.00;;
46266;SDS011;31998;48.798;15.066;2022-10-16T13:35:28;1.20;;;1.10;;
46266;SDS011;31998;48.798;15.066;2022-10-16T13:38:05;1.00;;;1.00;;
46266;SDS011;31998;48.798;15.066;2022-10-16T13:48:27;0.93;;;0.80;;
46266;SDS011;31998;48.798;15.066;2022-10-16T13:51:00;0.80;;;0.80;;
46266;SDS011;31998;48.798;15.066;2022-10-16T13:53:29;1.30;;;1.20;;
46266;SDS011;31998;48.798;15.066;2022-10-16T13:55:56;1.03;;;1.03;;
46266;SDS011;31998;48.798;15.066;2022-10-16T13:58:22;0.80;;;0.80;;
46266;SDS011;31998;48.798;15.066;2022-10-16T14:01:01;2.10;;;1.17;;
46266;SDS011;31998;48.798;15.066;2022-10-16T14:03:31;1.20;;;1.10;;
46266;SDS011;31998;48.798;15.066;2022-10-16T14:06:02;5.47;;;1.27;;
46266;SDS011;31998;48.798;15.066;2022-10-16T14:08:30;4.23;;;1.70;;
46266;SDS011;31998;48.798;15.066;2022-10-16T14:10:57;4.77;;;1.60;;
46266;SDS011;31998;48.798;15.066;2022-10-16T14:15:56;7.17;;;1.83;;
46266;SDS011;31998;48.798;15.066;2022-10-16T14:18:24;1.90;;;1.80;;
46266;SDS011;31998;48.798;15.066;2022-10-16T14:20:51;2.50;;;1.80;;
46266;SDS011;31998;48.798;15.066;2022-10-16T14:23:21;6.93;;;2.03;;
46266;SDS011;31998;48.798;15.066;2022-10-16T14:26:05;3.00;;;2.07;;
46266;SDS011;31998;48.798;15.066;2022-10-16T14:28:33;2.93;;;2.10;;
46266;SDS011;31998;48.798;15.066;2022-10-16T14:30:59;3.13;;;2.87;;
46266;SDS011;31998;48.798;15.066;2022-10-16T14:35:59;4.70;;;3.07;;
46266;SDS011;31998;48.798;15.066;2022-10-16T14:38:25;3.10;;;3.00;;
46266;SDS011;31998;48.798;15.066;2022-10-16T14:40:51;2.80;;;2.70;;
46266;SDS011;31998;48.798;15.066;2022-10-16T14:43:20;4.73;;;3.00;;
46266;SDS011;31998;48.798;15.066;2022-10-16T14:45:51;9.00;;;3.87;;
46266;SDS011;31998;48.798;15.066;2022-10-16T14:48:19;3.50;;;3.30;;
46266;SDS011;31998;48.798;15.066;2022-10-16T14:50:45;3.63;;;3.47;;
46266;SDS011;31998;48.798;15.066;2022-10-16T14:53:11;4.17;;;3.33;;
46266;SDS011;31998;48.798;15.066;2022-10-16T14:55:37;9.33;;;3.70;;
46266;SDS011;31998;48.798;15.066;2022-10-16T14:58:03;3.90;;;3.60;;
46266;SDS011;31998;48.798;15.066;2022-10-16T15:00:29;4.57;;;4.20;;
46266;SDS011;31998;48.798;15.066;2022-10-16T15:03:01;7.43;;;4.20;;
46266;SDS011;31998;48.798;15.066;2022-10-16T15:05:26;4.27;;;4.07;;
46266;SDS011;31998;48.798;15.066;2022-10-16T15:07:53;5.57;;;5.07;;
46266;SDS011;31998;48.798;15.066;2022-10-16T15:10:23;5.20;;;4.90;;
46266;SDS011;31998;48.798;15.066;2022-10-16T15:12:50;7.63;;;5.10;;
46266;SDS011;31998;48.798;15.066;2022-10-16T15:17:47;5.77;;;5.20;;
46266;SDS011;31998;48.798;15.066;2022-10-16T15:20:14;6.13;;;5.73;;
46266;SDS011;31998;48.798;15.066;2022-10-16T15:22:39;8.30;;;5.13;;
46266;SDS011;31998;48.798;15.066;2022-10-16T15:25:20;5.33;;;4.83;;
46266;SDS011;31998;48.798;15.066;2022-10-16T15:27:50;5.30;;;5.00;;
46266;SDS011;31998;48.798;15.066;2022-10-16T15:30:15;6.73;;;6.17;;
46266;SDS011;31998;48.798;15.066;2022-10-16T15:32:41;5.57;;;5.17;;
46266;SDS011;31998;48.798;15.066;2022-10-16T15:35:08;6.27;;;5.87;;
46266;SDS011;31998;48.798;15.066;2022-10-16T15:37:33;9.10;;;7.63;;
46266;SDS011;31998;48.798;15.066;2022-10-16T15:39:59;7.47;;;6.77;;
46266;SDS011;31998;48.798;15.066;2022-10-16T15:42:24;9.43;;;7.47;;
46266;SDS011;31998;48.798;15.066;2022-10-16T15:44:49;8.80;;;8.03;;
46266;SDS011;31998;48.798;15.066;2022-10-16T15:47:15;8.97;;;8.23;;
46266;SDS011;31998;48.798;15.066;2022-10-16T15:49:40;10.43;;;8.33;;
46266;SDS011;31998;48.798;15.066;2022-10-16T15:52:06;9.43;;;8.53;;
46266;SDS011;31998;48.798;15.066;2022-10-16T15:54:31;12.50;;;8.87;;
46266;SDS011;31998;48.798;15.066;2022-10-16T15:56:56;9.10;;;8.20;;
46266;SDS011;31998;48.798;15.066;2022-10-16T15:59:22;13.23;;;9.03;;
46266;SDS011;31998;48.798;15.066;2022-10-16T16:01:47;11.50;;;10.40;;
46266;SDS011;31998;48.798;15.066;2022-10-16T16:04:12;10.27;;;9.37;;
46266;SDS011;31998;48.798;15.066;2022-10-16T16:06:38;13.67;;;9.80;;
46266;SDS011;31998;48.798;15.066;2022-10-16T16:09:09;14.33;;;9.00;;
46266;SDS011;31998;48.798;15.066;2022-10-16T16:11:34;26.60;;;10.00;;
46266;SDS011;31998;48.798;15.066;2022-10-16T16:14:03;21.30;;;14.07;;
46266;SDS011;31998;48.798;15.066;2022-10-16T16:16:32;11.87;;;10.67;;
46266;SDS011;31998;48.798;15.066;2022-10-16T16:19:02;13.63;;;9.83;;
46266;SDS011;31998;48.798;15.066;2022-10-16T16:21:27;20.07;;;12.50;;
46266;SDS011;31998;48.798;15.066;2022-10-16T16:23:53;12.70;;;10.80;;
46266;SDS011;31998;48.798;15.066;2022-10-16T16:28:58;18.83;;;12.37;;
46266;SDS011;31998;48.798;15.066;2022-10-16T16:31:24;20.80;;;13.30;;
46266;SDS011;31998;48.798;15.066;2022-10-16T16:33:51;23.47;;;14.80;;
46266;SDS011;31998;48.798;15.066;2022-10-16T16:36:17;17.47;;;13.03;;
46266;SDS011;31998;48.798;15.066;2022-10-16T16:38:43;21.23;;;15.80;;
46266;SDS011;31998;48.798;15.066;2022-10-16T16:41:10;25.20;;;17.10;;
46266;SDS011;31998;48.798;15.066;2022-10-16T16:43:46;20.20;;;16.50;;
46266;SDS011;31998;48.798;15.066;2022-10-16T16:46:13;25.80;;;17.03;;
46266;SDS011;31998;48.798;15.066;2022-10-16T16:48:40;28.17;;;20.10;;
46266;SDS011;31998;48.798;15.066;2022-10-16T16:51:07;28.03;;;22.70;;
46266;SDS011;31998;48.798;15.066;2022-10-16T16:53:47;27.90;;;22.00;;